Time;durP1;ratioP1;P1;durP2;ratioP2;P2;SDS_P1;SDS_P2;PMS_P1;PMS_P2;Temp;Humidity;BMP_temperature;BMP_pressure;BME280_temperature;BME280_humidity;BME280_pressure;Samples;Min_cycle;Max_cycle;Signal;HPM_P1;HPM_P2
2023/10/22 00:01:21;;;;;;;;;;;;;;;13.78;71.60;97022.06;4963415;28;19930;-73
2023/10/22 00:04:09;;;;;;;;;;;;;;;13.74;72.21;97032.13;4967749;28;19937;-73
2023/10/22 00:06:58;;;;;;;;;;;;;;;13.66;72.64;97021.38;4964535;28;20014;-73
2023/10/22 00:09:46;;;;;;;;;;;;;;;13.70;72.38;97028.53;4965320;28;19922;-73
2023/10/22 00:12:34;;;;;;;;;;;;;;;13.72;72.15;97019.97;4970827;28;19922;-73
2023/10/22 00:15:24;;;;;;;;;;;;;;;13.72;72.26;97025.44;4966293;28;19922;-73
2023/10/22 00:18:12;;;;;;;;;;;;;;;13.70;72.06;97019.53;4971864;28;19922;-73
2023/10/22 00:21:00;;;;;;;;;;;;;;;13.51;72.88;97018.31;4968283;28;19933;-73
2023/10/22 00:23:49;;;;;;;;;;;;;;;13.55;72.94;97021.91;4966237;28;19922;-73
2023/10/22 00:26:37;;;;;;;;;;;;;;;13.50;73.01;97024.13;4971558;28;19928;-74
2023/10/22 00:29:25;;;;;;;;;;;;;;;13.52;73.06;97030.78;4967082;28;19957;-73
2023/10/22 00:32:13;;;;;;;;;;;;;;;13.49;73.08;97034.25;4957060;28;19926;-73
2023/10/22 00:35:01;;;;;;;;;;;;;;;13.52;72.92;97041.72;4969102;28;19922;-73
2023/10/22 00:37:29;;;;;;;;;;;;;;;13.45;72.75;97032.56;4972172;28;19929;-73
2023/10/22 00:40:01;;;;;;;;;;;;;;;13.41;72.93;97037.91;4970268;28;20245;-73
2023/10/22 00:42:46;;;;;;;;;;;;;;;13.48;72.88;97040.84;4956513;28;19929;-73
2023/10/22 00:45:13;;;;;;;;;;;;;;;13.48;73.00;97035.38;4969401;28;19937;-74
2023/10/22 00:47:46;;;;;;;;;;;;;;;13.54;72.95;97033.97;4969923;28;19922;-73
2023/10/22 00:50:20;;;;;;;;;;;;;;;13.54;72.90;97030.47;4968939;28;20609;-73
2023/10/22 00:52:48;;;;;;;;;;;;;;;13.51;72.53;97031.94;4969394;28;19945;-73
2023/10/22 00:55:18;;;;;;;;;;;;;;;13.57;72.42;97029.75;4967333;28;20250;-73
2023/10/22 00:57:49;;;;;;;;;;;;;;;13.50;72.49;97024.13;4968816;28;19957;-73
2023/10/22 01:00:17;;;;;;;;;;;;;;;13.43;73.07;97030.19;4969818;28;19972;-73
2023/10/22 01:02:45;;;;;;;;;;;;;;;13.45;72.62;97027.91;4970001;28;19982;-73
2023/10/22 01:05:12;;;;;;;;;;;;;;;13.51;72.57;97031.94;4969251;28;20025;-73
2023/10/22 01:07:40;;;;;;;;;;;;;;;13.48;72.31;97032.66;4966877;28;19922;-73
2023/10/22 01:10:09;;;;;;;;;;;;;;;13.45;72.79;97032.56;4953202;28;19969;-74
2023/10/22 01:12:38;;;;;;;;;;;;;;;13.41;72.55;97035.19;4965485;28;19977;-73
2023/10/22 01:15:06;;;;;;;;;;;;;;;13.38;72.76;97035.91;4970930;28;20071;-74
2023/10/22 01:17:34;;;;;;;;;;;;;;;13.31;72.77;97035.69;4952872;28;20029;-73
2023/10/22 01:20:02;;;;;;;;;;;;;;;13.26;73.12;97046.88;4969775;28;19930;-73
2023/10/22 01:22:29;;;;;;;;;;;;;;;13.19;73.54;97047.44;4969601;28;20016;-73
2023/10/22 01:24:58;;;;;;;;;;;;;;;13.23;73.30;97050.31;4963182;28;19922;-73
2023/10/22 01:27:26;;;;;;;;;;;;;;;13.27;73.33;97048.47;4968970;28;19961;-74
2023/10/22 01:29:53;;;;;;;;;;;;;;;13.21;73.43;97055.28;4963280;28;19933;-73
2023/10/22 01:32:24;;;;;;;;;;;;;;;13.19;73.81;97063.03;4968742;28;20050;-73
2023/10/22 01:35:10;;;;;;;;;;;;;;;13.18;73.37;97061.44;4970538;28;19953;-73
2023/10/22 01:37:37;;;;;;;;;;;;;;;13.22;73.35;97062.38;4970949;28;20013;-73
2023/10/22 01:40:25;;;;;;;;;;;;;;;13.13;73.38;97059.75;4969964;28;19929;-73
2023/10/22 01:43:16;;;;;;;;;;;;;;;13.07;73.33;97067.41;4971096;28;19926;-73
2023/10/22 01:46:05;;;;;;;;;;;;;;;13.05;73.56;97058.78;4964752;28;19945;-73
2023/10/22 01:48:53;;;;;;;;;;;;;;;13.11;73.25;97054.66;4960900;28;19926;-73
2023/10/22 01:51:40;;;;;;;;;;;;;;;13.09;72.92;97062.38;4963146;28;19934;-73
2023/10/22 01:54:30;;;;;;;;;;;;;;;13.02;73.34;97066.84;4968819;28;19926;-73
2023/10/22 01:57:19;;;;;;;;;;;;;;;12.97;73.69;97073.34;4952119;28;19930;-74
2023/10/22 02:00:10;;;;;;;;;;;;;;;13.02;73.34;97073.09;4955777;28;19934;-73
2023/10/22 02:03:05;;;;;;;;;;;;;;;12.97;73.05;97070.63;4969910;28;19929;-73
2023/10/22 02:05:53;;;;;;;;;;;;;;;12.95;73.27;97072.91;4966508;28;19973;-73
2023/10/22 02:08:42;;;;;;;;;;;;;;;12.96;73.38;97071.78;4967392;28;19944;-73
2023/10/22 02:11:30;;;;;;;;;;;;;;;12.94;73.41;97075.97;4956173;28;19922;-73
2023/10/22 02:14:19;;;;;;;;;;;;;;;12.92;73.55;97081.78;4969321;28;19929;-73
2023/10/22 02:17:07;;;;;;;;;;;;;;;12.91;73.60;97085.66;4953862;28;19937;-73
2023/10/22 02:19:55;;;;;;;;;;;;;;;12.83;73.89;97086.56;4952313;28;19973;-73
2023/10/22 02:22:43;;;;;;;;;;;;;;;12.81;73.94;97091.59;4965419;28;19926;-73
2023/10/22 02:25:31;;;;;;;;;;;;;;;12.82;73.83;97093.94;4969167;28;20013;-74
2023/10/22 02:28:19;;;;;;;;;;;;;;;12.93;73.51;97079.84;4969810;28;20438;-73
2023/10/22 02:31:10;;;;;;;;;;;;;;;12.88;73.40;97091.78;4969302;28;19929;-73
2023/10/22 02:34:02;;;;;;;;;;;;;;;12.89;73.20;97081.66;4956494;28;19925;-74
2023/10/22 02:36:51;;;;;;;;;;;;;;;12.86;73.23;97080.44;4966759;28;19982;-73
2023/10/22 02:39:39;;;;;;;;;;;;;;;12.78;73.56;97082.19;4967350;28;20029;-73
2023/10/22 02:42:27;;;;;;;;;;;;;;;12.77;73.32;97093.41;4967263;28;19930;-73
2023/10/22 02:45:15;;;;;;;;;;;;;;;12.77;73.09;97091.47;4969083;28;20380;-73
2023/10/22 02:48:06;;;;;;;;;;;;;;;12.75;73.39;97095.69;4968082;28;19930;-73
2023/10/22 02:50:54;;;;;;;;;;;;;;;12.72;73.37;97099.88;4969498;28;19941;-73
2023/10/22 02:53:43;;;;;;;;;;;;;;;12.73;73.48;97100.69;4961268;28;19929;-73
2023/10/22 02:56:31;;;;;;;;;;;;;;;12.70;73.38;97101.38;4964574;28;19922;-73
2023/10/22 02:59:19;;;;;;;;;;;;;;;12.71;73.34;97109.22;4967175;28;19929;-73
2023/10/22 03:02:07;;;;;;;;;;;;;;;12.64;73.20;97100.03;4967001;28;20283;-73
2023/10/22 03:04:57;;;;;;;;;;;;;;;12.56;73.53;97099.81;4958272;28;19968;-73
2023/10/22 03:07:45;;;;;;;;;;;;;;;12.53;73.32;97099.72;4968366;28;20232;-73
2023/10/22 03:10:36;;;;;;;;;;;;;;;12.57;73.50;97098.69;4950534;28;20016;-73
2023/10/22 03:13:24;;;;;;;;;;;;;;;12.56;73.34;97096.28;4966436;28;20364;-73
2023/10/22 03:16:14;;;;;;;;;;;;;;;12.51;73.71;97100.03;4969705;28;19922;-73
2023/10/22 03:19:02;;;;;;;;;;;;;;;12.54;73.13;97093.13;4973022;28;19934;-73
2023/10/22 03:21:52;;;;;;;;;;;;;;;12.58;73.39;97094.81;4959789;28;19929;-73
2023/10/22 03:24:40;;;;;;;;;;;;;;;12.54;73.15;97102.09;4954703;28;19928;-73
2023/10/22 03:27:28;;;;;;;;;;;;;;;12.50;73.38;97098.47;4972625;28;20395;-73
2023/10/22 03:30:17;;;;;;;;;;;;;;;12.49;73.28;97099.59;4956899;28;19926;-73
2023/10/22 03:33:05;;;;;;;;;;;;;;;12.58;72.85;97110.38;4963085;28;19922;-74
2023/10/22 03:35:53;;;;;;;;;;;;;;;12.53;72.84;97111.41;4972655;28;19934;-73
2023/10/22 03:38:45;;;;;;;;;;;;;;;12.51;72.89;97107.44;4970555;28;19975;-73
2023/10/22 03:41:33;;;;;;;;;;;;;;;12.42;72.90;97113.03;4970374;28;19984;-73
2023/10/22 03:44:21;;;;;;;;;;;;;;;12.42;72.70;97113.03;4958442;28;19929;-73
2023/10/22 03:47:12;;;;;;;;;;;;;;;12.38;72.75;97117.56;4970810;28;19923;-73
2023/10/22 03:50:00;;;;;;;;;;;;;;;12.44;72.42;97115.38;4958875;28;19941;-73
2023/10/22 03:52:50;;;;;;;;;;;;;;;12.38;72.38;97120.28;4970172;28;20203;-73
2023/10/22 03:55:39;;;;;;;;;;;;;;;12.40;72.60;97123.44;4971466;28;19922;-73
2023/10/22 03:58:27;;;;;;;;;;;;;;;12.36;72.34;97119.84;4970380;28;20355;-73
2023/10/22 04:01:15;;;;;;;;;;;;;;;12.32;72.74;97122.44;4948502;28;19934;-73
2023/10/22 04:04:04;;;;;;;;;;;;;;;12.31;72.85;97120.84;4951560;28;19922;-73
2023/10/22 04:06:52;;;;;;;;;;;;;;;12.34;73.10;97127.53;4951086;29;19922;-73
2023/10/22 04:09:40;;;;;;;;;;;;;;;12.36;73.01;97129.91;4951659;29;20009;-73
2023/10/22 04:12:31;;;;;;;;;;;;;;;12.37;73.46;97121.41;4954432;29;19922;-73
2023/10/22 04:15:23;;;;;;;;;;;;;;;12.40;73.35;97133.56;4946264;28;19954;-73
2023/10/22 04:18:11;;;;;;;;;;;;;;;12.50;73.09;97131.16;4952716;29;19926;-73
2023/10/22 04:21:01;;;;;;;;;;;;;;;12.58;72.73;97132.97;4947209;28;19976;-73
2023/10/22 04:23:51;;;;;;;;;;;;;;;12.68;72.32;97131.72;4951661;29;20009;-73
2023/10/22 04:26:39;;;;;;;;;;;;;;;12.77;72.06;97129.63;4949913;29;19922;-73
2023/10/22 04:29:28;;;;;;;;;;;;;;;12.73;71.95;97130.66;4954358;28;20029;-73
2023/10/22 04:32:17;;;;;;;;;;;;;;;12.75;71.70;97136.56;4953076;29;20300;-73
2023/10/22 04:35:06;;;;;;;;;;;;;;;12.87;71.20;97133.03;4940552;29;19922;-73
2023/10/22 04:37:55;;;;;;;;;;;;;;;12.80;70.89;97133.63;4947592;28;19938;-73
2023/10/22 04:40:43;;;;;;;;;;;;;;;12.86;70.49;97126.78;4948604;29;19941;-73
2023/10/22 04:43:31;;;;;;;;;;;;;;;12.85;70.72;97136.09;4946586;29;20033;-73
2023/10/22 04:46:20;;;;;;;;;;;;;;;12.86;70.41;97148.59;4948337;28;20459;-73
2023/10/22 04:49:08;;;;;;;;;;;;;;;12.91;70.06;97142.91;4951877;29;20357;-73
2023/10/22 04:51:56;;;;;;;;;;;;;;;12.91;69.78;97151.06;4946027;29;19923;-73
2023/10/22 04:54:45;;;;;;;;;;;;;;;12.84;69.83;97153.59;4950821;29;19926;-73
2023/10/22 04:57:33;;;;;;;;;;;;;;;12.98;69.37;97151.28;4952950;28;20279;-74
2023/10/22 05:00:21;;;;;;;;;;;;;;;12.93;69.43;97159.69;4958331;28;20125;-73
2023/10/22 05:03:10;;;;;;;;;;;;;;;12.91;69.38;97167.44;4971577;28;19929;-73
2023/10/22 05:05:58;;;;;;;;;;;;;;;12.79;69.69;97162.00;4965804;28;20303;-73
2023/10/22 05:08:46;;;;;;;;;;;;;;;12.84;69.58;97175.41;4968647;28;19945;-73
2023/10/22 05:11:35;;;;;;;;;;;;;;;12.95;69.31;97173.00;4970760;28;19922;-73
2023/10/22 05:14:22;;;;;;;;;;;;;;;12.74;70.05;97170.44;4964728;28;19945;-73
2023/10/22 05:17:10;;;;;;;;;;;;;;;12.75;69.98;97177.47;4970058;28;19922;-73
2023/10/22 05:20:00;;;;;;;;;;;;;;;12.83;69.82;97184.69;4961085;28;20012;-73
2023/10/22 05:22:48;;;;;;;;;;;;;;;12.88;69.77;97194.56;4962057;28;20742;-73
2023/10/22 05:25:36;;;;;;;;;;;;;;;12.80;69.62;97197.09;4962159;28;19965;-73
2023/10/22 05:28:24;;;;;;;;;;;;;;;12.90;69.37;97200.50;4971317;28;19922;-73
2023/10/22 05:31:13;;;;;;;;;;;;;;;12.74;69.49;97186.78;4971273;28;19976;-73
2023/10/22 05:34:01;;;;;;;;;;;;;;;12.83;69.37;97198.31;4970302;28;20468;-73
2023/10/22 05:36:50;;;;;;;;;;;;;;;12.81;69.75;97211.50;4970180;28;20017;-73
2023/10/22 05:39:38;;;;;;;;;;;;;;;12.75;69.79;97210.97;4964191;28;20482;-73
2023/10/22 05:42:26;;;;;;;;;;;;;;;12.85;69.54;97213.22;4969394;28;19938;-73
2023/10/22 05:45:15;;;;;;;;;;;;;;;12.81;69.80;97216.97;4970200;28;20336;-73
2023/10/22 05:48:03;;;;;;;;;;;;;;;12.81;70.03;97225.16;4973586;28;19980;-72
2023/10/22 05:50:51;;;;;;;;;;;;;;;12.95;69.33;97231.03;4971680;28;20023;-73
2023/10/22 05:53:41;;;;;;;;;;;;;;;12.89;69.67;97231.59;4968179;28;20000;-73
2023/10/22 05:56:29;;;;;;;;;;;;;;;12.94;69.17;97234.09;4970083;28;19929;-73
2023/10/22 05:59:17;;;;;;;;;;;;;;;12.91;69.42;97238.31;4967082;28;20438;-73
2023/10/22 06:02:05;;;;;;;;;;;;;;;12.99;69.05;97251.00;4971501;28;19929;-73
2023/10/22 06:04:53;;;;;;;;;;;;;;;13.01;68.50;97254.22;4971871;28;20327;-73
2023/10/22 06:07:41;;;;;;;;;;;;;;;12.86;69.28;97252.19;4969620;28;20012;-73
2023/10/22 06:10:30;;;;;;;;;;;;;;;12.92;68.98;97269.88;4969948;28;19929;-73
2023/10/22 06:13:18;;;;;;;;;;;;;;;12.82;69.33;97281.25;4961018;28;19967;-74
2023/10/22 06:16:07;;;;;;;;;;;;;;;12.79;69.20;97279.22;4959422;28;19969;-73
2023/10/22 06:18:55;;;;;;;;;;;;;;;12.82;69.36;97282.03;4965063;28;19929;-73
2023/10/22 06:21:43;;;;;;;;;;;;;;;12.83;69.40;97285.56;4964899;28;19929;-73
2023/10/22 06:24:32;;;;;;;;;;;;;;;12.68;69.67;97286.25;4965733;28;19929;-73
2023/10/22 06:27:22;;;;;;;;;;;;;;;12.75;69.56;97292.72;4949616;28;20399;-73
2023/10/22 06:30:10;;;;;;;;;;;;;;;12.80;69.26;97286.25;4958181;28;20628;-73
2023/10/22 06:33:02;;;;;;;;;;;;;;;12.72;69.61;97295.31;4966703;28;20327;-73
2023/10/22 06:35:51;;;;;;;;;;;;;;;12.76;69.58;97302.47;4965678;28;19922;-73
2023/10/22 06:38:39;;;;;;;;;;;;;;;12.68;70.22;97308.84;4963372;28;19922;-73
2023/10/22 06:41:27;;;;;;;;;;;;;;;12.68;70.27;97313.50;4967844;28;19926;-74
2023/10/22 06:44:16;;;;;;;;;;;;;;;12.63;70.83;97314.53;4968074;28;19922;-74
2023/10/22 06:47:04;;;;;;;;;;;;;;;12.69;70.27;97318.63;4969725;28;19969;-74
2023/10/22 06:49:52;;;;;;;;;;;;;;;12.70;70.06;97319.41;4964992;28;19961;-73
2023/10/22 06:52:41;;;;;;;;;;;;;;;12.69;69.96;97326.00;4965424;28;20021;-74
2023/10/22 06:55:30;;;;;;;;;;;;;;;12.64;70.23;97332.47;4967710;28;20279;-73
2023/10/22 06:58:18;;;;;;;;;;;;;;;12.74;69.72;97331.22;4969012;28;20253;-73
2023/10/22 07:01:08;;;;;;;;;;;;;;;12.78;70.04;97332.13;4941904;29;19978;-74
2023/10/22 07:03:56;;;;;;;;;;;;;;;12.77;70.17;97330.53;4946389;28;19929;-74
2023/10/22 07:06:45;;;;;;;;;;;;;;;12.82;70.18;97341.22;4946411;29;20054;-73
2023/10/22 07:09:34;;;;;;;;;;;;;;;12.79;70.25;97339.97;4940899;29;19929;-74
2023/10/22 07:12:22;;;;;;;;;;;;;;;12.84;70.27;97341.69;4951969;29;19997;-73
2023/10/22 07:15:12;;;;;;;;;;;;;;;12.83;70.14;97340.88;4951138;29;19922;-73
2023/10/22 07:18:01;;;;;;;;;;;;;;;12.79;70.32;97350.88;4945339;29;19945;-73
2023/10/22 07:20:50;;;;;;;;;;;;;;;12.72;70.61;97349.84;4947746;29;20046;-73
2023/10/22 07:23:38;;;;;;;;;;;;;;;12.69;70.75;97358.69;4940222;29;19927;-73
2023/10/22 07:26:26;;;;;;;;;;;;;;;12.77;70.54;97355.06;4951249;29;19930;-73
2023/10/22 07:29:14;;;;;;;;;;;;;;;12.84;70.52;97363.50;4946728;29;19923;-74
2023/10/22 07:32:02;;;;;;;;;;;;;;;12.79;70.68;97361.00;4944665;29;19923;-73
2023/10/22 07:34:51;;;;;;;;;;;;;;;12.83;70.53;97359.16;4944721;29;20365;-74
2023/10/22 07:37:41;;;;;;;;;;;;;;;12.95;70.47;97364.63;4943524;29;19926;-73
2023/10/22 07:40:29;;;;;;;;;;;;;;;12.96;70.47;97366.22;4939947;29;19930;-74
2023/10/22 07:43:17;;;;;;;;;;;;;;;12.99;70.21;97365.53;4943707;29;19935;-73
2023/10/22 07:46:05;;;;;;;;;;;;;;;12.97;70.27;97367.81;4946828;29;19922;-74
2023/10/22 07:48:53;;;;;;;;;;;;;;;12.91;70.03;97369.19;4947440;29;19922;-73
2023/10/22 07:51:42;;;;;;;;;;;;;;;12.89;70.16;97376.91;4948128;28;20396;-73
2023/10/22 07:54:30;;;;;;;;;;;;;;;12.97;70.21;97369.75;4949575;29;20442;-74
2023/10/22 07:57:18;;;;;;;;;;;;;;;13.13;70.03;97380.78;4952829;29;19975;-73
2023/10/22 08:00:07;;;;;;;;;;;;;;;13.09;69.11;97386.09;4965646;28;19937;-74
2023/10/22 08:02:58;;;;;;;;;;;;;;;12.89;69.56;97393.25;4969290;28;20407;-74
2023/10/22 08:05:46;;;;;;;;;;;;;;;13.07;70.01;97391.91;4968905;28;20287;-73
2023/10/22 08:08:36;;;;;;;;;;;;;;;13.19;69.36;97396.56;4969187;28;20426;-73
2023/10/22 08:11:24;;;;;;;;;;;;;;;13.30;69.71;97396.94;4969801;28;20375;-73
2023/10/22 08:14:12;;;;;;;;;;;;;;;13.35;69.03;97407.63;4969438;28;19922;-73
2023/10/22 08:17:00;;;;;;;;;;;;;;;13.40;68.88;97407.41;4974757;28;19921;-73
2023/10/22 08:19:48;;;;;;;;;;;;;;;13.47;69.33;97410.34;4973374;28;19965;-74
2023/10/22 08:22:36;;;;;;;;;;;;;;;13.57;68.71;97406.34;4973585;28;20013;-74
2023/10/22 08:25:26;;;;;;;;;;;;;;;13.57;68.30;97420.00;4967924;28;19944;-74
2023/10/22 08:28:14;;;;;;;;;;;;;;;13.63;67.37;97422.19;4965780;28;20400;-72
2023/10/22 08:31:02;;;;;;;;;;;;;;;13.45;67.25;97426.28;4971019;28;20009;-73
2023/10/22 08:33:50;;;;;;;;;;;;;;;13.60;68.23;97422.84;4970246;28;19926;-73
2023/10/22 08:36:40;;;;;;;;;;;;;;;13.63;66.96;97427.63;4963116;28;19929;-73
2023/10/22 08:39:30;;;;;;;;;;;;;;;13.58;66.09;97424.31;4963597;28;19923;-73
2023/10/22 08:42:21;;;;;;;;;;;;;;;13.69;66.26;97433.66;4966470;28;19922;-73
2023/10/22 08:45:10;;;;;;;;;;;;;;;13.73;66.08;97436.47;4956640;28;19973;-73
2023/10/22 08:47:58;;;;;;;;;;;;;;;13.87;65.76;97434.19;4963547;28;19945;-73
2023/10/22 08:50:46;;;;;;;;;;;;;;;13.92;65.94;97438.63;4970805;28;19930;-73
2023/10/22 08:53:36;;;;;;;;;;;;;;;13.87;64.95;97436.94;4959296;28;19934;-73
2023/10/22 08:56:25;;;;;;;;;;;;;;;13.99;63.97;97442.34;4968924;28;19933;-73
2023/10/22 08:59:15;;;;;;;;;;;;;;;14.05;63.69;97440.97;4964951;28;20206;-73
2023/10/22 09:02:04;;;;;;;;;;;;;;;14.05;62.89;97449.16;4959222;28;19922;-73
2023/10/22 09:04:52;;;;;;;;;;;;;;;14.13;63.53;97453.72;4972825;28;20069;-73
2023/10/22 09:07:50;;;;;;;;;;;;;;;14.21;62.63;97445.72;4958831;28;19922;-72
2023/10/22 09:10:38;;;;;;;;;;;;;;;14.31;61.81;97454.22;4955861;28;19922;-72
2023/10/22 09:13:26;;;;;;;;;;;;;;;14.31;61.26;97445.22;4946491;28;20020;-73
2023/10/22 09:16:29;;;;;;;;;;;;;;;14.29;60.15;97445.59;4964687;28;20211;-73
2023/10/22 09:19:23;;;;;;;;;;;;;;;14.32;60.40;97446.81;4964034;28;19934;-73
2023/10/22 09:22:13;;;;;;;;;;;;;;;14.31;59.43;97445.22;4968657;28;20400;-73
2023/10/22 09:25:01;;;;;;;;;;;;;;;14.38;59.61;97453.63;4951237;28;19926;-73
2023/10/22 09:27:49;;;;;;;;;;;;;;;14.38;58.90;97445.41;4968492;28;19926;-73
2023/10/22 09:30:37;;;;;;;;;;;;;;;14.29;58.94;97448.31;4971264;28;19922;-73
2023/10/22 09:33:32;;;;;;;;;;;;;;;14.36;59.45;97443.03;4961709;28;19926;-73
2023/10/22 09:36:25;;;;;;;;;;;;;;;14.40;59.49;97438.47;4971719;28;19930;-73
2023/10/22 09:39:13;;;;;;;;;;;;;;;14.42;59.18;97438.13;4972900;28;19922;-72
2023/10/22 09:42:03;;;;;;;;;;;;;;;14.35;58.88;97440.66;4969514;28;20276;-73
2023/10/22 09:45:03;;;;;;;;;;;;;;;14.37;58.52;97432.91;4957535;28;19929;-73
2023/10/22 09:47:51;;;;;;;;;;;;;;;14.44;58.67;97435.06;4971725;28;19985;-73
2023/10/22 09:50:56;;;;;;;;;;;;;;;14.46;57.81;97436.28;4971997;28;19929;-73
2023/10/22 09:53:46;;;;;;;;;;;;;;;14.50;58.47;97442.69;4966876;28;19928;-73
2023/10/22 09:56:40;;;;;;;;;;;;;;;14.52;58.67;97445.88;4971146;28;20057;-73
2023/10/22 09:59:28;;;;;;;;;;;;;;;14.63;57.81;97451.63;4962195;28;20273;-73
2023/10/22 10:02:16;;;;;;;;;;;;;;;14.58;57.12;97439.00;4962093;28;19929;-72
2023/10/22 10:05:11;;;;;;;;;;;;;;;14.53;56.81;97439.25;4971151;28;19922;-72
2023/10/22 10:08:00;;;;;;;;;;;;;;;14.50;57.42;97445.44;4972643;28;20008;-73
2023/10/22 10:10:48;;;;;;;;;;;;;;;14.51;57.12;97447.00;4963508;28;19922;-73
2023/10/22 10:13:36;;;;;;;;;;;;;;;14.51;57.69;97455.22;4969061;28;20284;-73
2023/10/22 10:16:24;;;;;;;;;;;;;;;14.47;57.02;97448.84;4970723;28;19922;-72
2023/10/22 10:19:20;;;;;;;;;;;;;;;14.44;56.97;97449.53;4961081;28;19990;-72
2023/10/22 10:22:09;;;;;;;;;;;;;;;14.41;57.45;97447.47;4951468;28;20018;-75
2023/10/22 10:25:08;;;;;;;;;;;;;;;14.35;57.66;97443.41;4965942;28;19960;-74
2023/10/22 10:28:03;;;;;;;;;;;;;;;14.46;57.87;97439.03;4964307;28;20033;-73
2023/10/22 10:30:51;;;;;;;;;;;;;;;14.53;57.41;97441.19;4961018;28;20403;-73
2023/10/22 10:33:54;;;;;;;;;;;;;;;14.47;57.38;97443.38;4966646;28;19926;-73
2023/10/22 10:36:42;;;;;;;;;;;;;;;14.54;57.79;97443.59;4963698;28;20356;-73
2023/10/22 10:39:37;;;;;;;;;;;;;;;14.66;56.21;97443.53;4971285;28;19929;-73
2023/10/22 10:42:40;;;;;;;;;;;;;;;14.84;54.65;97440.47;4968102;28;19941;-73
2023/10/22 10:45:29;;;;;;;;;;;;;;;14.94;53.86;97448.16;4966706;28;19929;-73
2023/10/22 10:48:36;;;;;;;;;;;;;;;14.92;53.62;97451.25;4964527;28;19944;-73
2023/10/22 10:51:25;;;;;;;;;;;;;;;14.87;54.42;97439.78;4965948;28;19922;-73
2023/10/22 10:54:18;;;;;;;;;;;;;;;14.85;52.99;97439.31;4960786;28;20008;-73
2023/10/22 10:57:06;;;;;;;;;;;;;;;14.77;52.94;97435.63;4968830;28;19929;-73
2023/10/22 10:59:54;;;;;;;;;;;;;;;14.85;53.75;97439.31;4969216;28;19926;-73
2023/10/22 11:02:44;;;;;;;;;;;;;;;14.86;53.24;97435.44;4963212;28;20040;-73
2023/10/22 11:05:35;;;;;;;;;;;;;;;14.92;53.19;97436.78;4964430;28;20008;-73
2023/10/22 11:08:23;;;;;;;;;;;;;;;14.96;52.21;97443.13;4967560;28;20057;-73
2023/10/22 11:11:14;;;;;;;;;;;;;;;14.95;52.33;97430.59;4969032;28;19926;-73
2023/10/22 11:14:11;;;;;;;;;;;;;;;14.99;51.75;97433.44;4964943;28;20403;-73
2023/10/22 11:16:59;;;;;;;;;;;;;;;15.06;53.89;97437.13;4965872;28;20000;-73
2023/10/22 11:19:50;;;;;;;;;;;;;;;15.02;53.30;97424.50;4958302;28;19981;-73
2023/10/22 11:22:38;;;;;;;;;;;;;;;15.10;52.71;97443.50;4967431;28;20265;-73
2023/10/22 11:25:27;;;;;;;;;;;;;;;15.14;51.70;97433.44;4965468;28;21355;-73
2023/10/22 11:28:15;;;;;;;;;;;;;;;15.14;51.91;97436.19;4969685;28;19922;-73
2023/10/22 11:31:03;;;;;;;;;;;;;;;15.18;51.91;97437.06;4973728;28;19922;-73
2023/10/22 11:33:51;;;;;;;;;;;;;;;15.23;51.91;97430.53;4973014;28;19922;-73
2023/10/22 11:36:41;;;;;;;;;;;;;;;15.28;51.15;97426.72;4972546;28;19926;-73
2023/10/22 11:39:32;;;;;;;;;;;;;;;15.32;51.61;97422.94;4965032;28;20443;-73
2023/10/22 11:42:32;;;;;;;;;;;;;;;15.40;51.72;97429.38;4973543;28;19926;-74
2023/10/22 11:45:20;;;;;;;;;;;;;;;15.41;51.27;97430.97;4973111;28;19961;-74
2023/10/22 11:48:12;;;;;;;;;;;;;;;15.43;50.59;97425.94;4975409;28;20162;-74
2023/10/22 11:51:07;;;;;;;;;;;;;;;15.53;50.61;97430.06;4975974;28;19926;-78
2023/10/22 11:53:59;;;;;;;;;;;;;;;15.51;49.71;97426.91;4976395;28;20245;-74
2023/10/22 11:56:48;;;;;;;;;;;;;;;15.46;49.61;97427.97;4972211;28;19937;-74
2023/10/22 11:59:35;;;;;;;;;;;;;;;15.47;50.11;97445.97;4969592;28;19929;-74
2023/10/22 12:02:23;;;;;;;;;;;;;;;15.50;49.48;97444.47;4974726;28;20380;-74
2023/10/22 12:05:13;;;;;;;;;;;;;;;15.59;49.81;97434.13;4976584;28;19954;-74
2023/10/22 12:08:02;;;;;;;;;;;;;;;15.53;48.89;97432.81;4974525;28;19922;-74
2023/10/22 12:10:52;;;;;;;;;;;;;;;15.59;49.09;97437.66;4964991;28;20363;-74
2023/10/22 12:13:41;;;;;;;;;;;;;;;15.72;49.48;97438.38;4972216;28;20388;-74
2023/10/22 12:16:29;;;;;;;;;;;;;;;15.87;49.70;97426.59;4973992;28;19922;-74
2023/10/22 12:19:16;;;;;;;;;;;;;;;15.96;48.15;97431.88;4966944;28;19926;-74
2023/10/22 12:22:05;;;;;;;;;;;;;;;16.04;47.13;97422.66;4973214;28;20000;-75
2023/10/22 12:24:56;;;;;;;;;;;;;;;16.05;47.91;97429.72;4974488;28;19940;-74
2023/10/22 12:27:48;;;;;;;;;;;;;;;16.09;47.03;97436.09;4965011;28;19929;-74
2023/10/22 12:30:36;;;;;;;;;;;;;;;16.08;47.26;97437.22;4966542;28;19922;-75
2023/10/22 12:33:24;;;;;;;;;;;;;;;16.09;47.43;97441.56;4967408;28;19926;-75
2023/10/22 12:36:12;;;;;;;;;;;;;;;16.10;47.46;97439.63;4969033;28;19929;-74
2023/10/22 12:39:01;;;;;;;;;;;;;;;16.15;48.67;97447.56;4963847;28;20357;-75
2023/10/22 12:41:49;;;;;;;;;;;;;;;16.25;48.71;97441.50;4964415;28;19922;-74
2023/10/22 12:44:38;;;;;;;;;;;;;;;16.32;47.61;97438.91;4962815;28;20326;-74
2023/10/22 12:47:26;;;;;;;;;;;;;;;16.37;47.59;97444.09;4966477;28;19922;-75
2023/10/22 12:50:14;;;;;;;;;;;;;;;16.38;46.20;97444.91;4965244;28;20403;-75
2023/10/22 12:53:04;;;;;;;;;;;;;;;16.42;46.21;97446.56;4969757;28;19941;-75
2023/10/22 12:55:53;;;;;;;;;;;;;;;16.42;45.44;97454.78;4948628;28;19930;-75
2023/10/22 12:58:41;;;;;;;;;;;;;;;16.30;44.82;97462.34;4960777;28;19930;-75
2023/10/22 13:01:30;;;;;;;;;;;;;;;16.21;45.18;97463.34;4945661;29;20365;-75
2023/10/22 13:04:18;;;;;;;;;;;;;;;16.20;45.87;97464.50;4945546;29;19927;-75
2023/10/22 13:07:07;;;;;;;;;;;;;;;16.21;46.22;97457.88;4941776;29;19962;-75
2023/10/22 13:09:55;;;;;;;;;;;;;;;16.19;46.51;97467.59;4946013;29;19941;-75
2023/10/22 13:12:43;;;;;;;;;;;;;;;16.11;46.74;97474.09;4946303;29;19935;-74
2023/10/22 13:15:45;;;;;;;;;;;;;;;16.05;46.95;97470.03;4945062;29;19926;-75
2023/10/22 13:18:34;;;;;;;;;;;;;;;16.00;47.38;97473.84;4943978;29;19923;-74
2023/10/22 13:21:22;;;;;;;;;;;;;;;16.00;47.65;97473.06;4945966;29;19922;-75
2023/10/22 13:24:10;;;;;;;;;;;;;;;16.03;48.12;97478.59;4946961;29;19929;-74
2023/10/22 13:26:59;;;;;;;;;;;;;;;16.16;48.47;97488.28;4946399;29;19923;-75
2023/10/22 13:29:47;;;;;;;;;;;;;;;16.23;46.94;97484.91;4949030;29;20292;-75
2023/10/22 13:32:35;;;;;;;;;;;;;;;16.19;46.01;97479.38;4952912;28;19985;-75
2023/10/22 13:35:25;;;;;;;;;;;;;;;16.27;47.24;97477.56;4950664;29;19933;-75
2023/10/22 13:38:15;;;;;;;;;;;;;;;16.35;46.91;97483.97;4947085;29;19931;-74
2023/10/22 13:41:03;;;;;;;;;;;;;;;16.37;46.31;97493.44;4953148;28;19922;-73
2023/10/22 13:43:51;;;;;;;;;;;;;;;16.36;46.12;97497.34;4948176;29;19985;-73
2023/10/22 13:46:39;;;;;;;;;;;;;;;16.33;45.91;97500.78;4939860;29;19922;-74
2023/10/22 13:49:29;;;;;;;;;;;;;;;16.33;45.55;97506.28;4950372;28;20017;-74
2023/10/22 13:52:19;;;;;;;;;;;;;;;16.33;46.66;97519.19;4954034;29;19922;-74
2023/10/22 13:55:07;;;;;;;;;;;;;;;16.29;45.31;97515.56;4945056;29;20381;-73
2023/10/22 13:57:55;;;;;;;;;;;;;;;16.23;45.77;97509.56;4952885;29;20013;-73
2023/10/22 14:00:43;;;;;;;;;;;;;;;16.15;45.61;97505.91;4958774;28;19988;-74
2023/10/22 14:03:31;;;;;;;;;;;;;;;16.18;45.93;97512.59;4971537;28;19922;-74
2023/10/22 14:06:21;;;;;;;;;;;;;;;16.18;46.38;97507.91;4964384;28;20816;-74
2023/10/22 14:09:11;;;;;;;;;;;;;;;16.12;46.42;97505.81;4968094;28;19926;-74
2023/10/22 14:11:59;;;;;;;;;;;;;;;16.05;46.54;97509.19;4970609;28;19922;-74
2023/10/22 14:14:48;;;;;;;;;;;;;;;16.06;46.62;97510.78;4967146;28;19922;-73
2023/10/22 14:17:36;;;;;;;;;;;;;;;16.07;46.66;97511.56;4965066;28;20351;-74
2023/10/22 14:20:25;;;;;;;;;;;;;;;16.07;46.40;97504.13;4968748;28;19929;-74
2023/10/22 14:23:13;;;;;;;;;;;;;;;16.10;46.30;97511.66;4954535;28;19926;-73
2023/10/22 14:26:04;;;;;;;;;;;;;;;16.11;46.88;97510.50;4966677;28;19923;-74
2023/10/22 14:28:52;;;;;;;;;;;;;;;16.09;46.09;97510.06;4962504;28;19934;-74
2023/10/22 14:31:40;;;;;;;;;;;;;;;16.09;46.46;97509.28;4965375;28;19922;-74
2023/10/22 14:34:28;;;;;;;;;;;;;;;16.09;46.08;97509.28;4964759;28;19926;-74